sensor_id;sensor_type;location;lat;lon;timestamp;pressure;altitude;pressure_sealevel;temperature;humidity
60212;BME280;46079;48.686;15.598;2023-04-10T00:00:15;100708.94;;;19.66;43.17
60212;BME280;46079;48.686;15.598;2023-04-10T00:02:41;100701.06;;;19.66;43.15
60212;BME280;46079;48.686;15.598;2023-04-10T00:05:07;100698.44;;;19.66;43.38
60212;BME280;46079;48.686;15.598;2023-04-10T00:07:32;100701.78;;;19.68;43.24
60212;BME280;46079;48.686;15.598;2023-04-10T00:09:58;100706.31;;;19.66;43.23
60212;BME280;46079;48.686;15.598;2023-04-10T00:12:23;100698.44;;;19.66;43.38
60212;BME280;46079;48.686;15.598;2023-04-10T00:14:49;100696.75;;;19.65;43.42
60212;BME280;46079;48.686;15.598;2023-04-10T00:17:14;100701.88;;;19.66;43.42
60212;BME280;46079;48.686;15.598;2023-04-10T00:19:40;100696.63;;;19.66;43.34
60212;BME280;46079;48.686;15.598;2023-04-10T00:22:05;100703.69;;;19.66;43.37
60212;BME280;46079;48.686;15.598;2023-04-10T00:24:31;100696.75;;;19.65;43.46
60212;BME280;46079;48.686;15.598;2023-04-10T00:26:59;100699.38;;;19.65;43.52
60212;BME280;46079;48.686;15.598;2023-04-10T00:29:28;100703.69;;;19.66;43.39
60212;BME280;46079;48.686;15.598;2023-04-10T00:31:53;100698.44;;;19.66;43.37
60212;BME280;46079;48.686;15.598;2023-04-10T00:34:19;100697.56;;;19.65;43.65
60212;BME280;46079;48.686;15.598;2023-04-10T00:36:45;100696.75;;;19.65;43.64
60212;BME280;46079;48.686;15.598;2023-04-10T00:39:12;100696.75;;;19.65;43.77
60212;BME280;46079;48.686;15.598;2023-04-10T00:41:37;100694.13;;;19.65;43.51
60212;BME280;46079;48.686;15.598;2023-04-10T00:44:03;100702.81;;;19.65;43.53
60212;BME280;46079;48.686;15.598;2023-04-10T00:46:29;100696.75;;;19.65;43.51
60212;BME280;46079;48.686;15.598;2023-04-10T00:48:56;100696.75;;;19.65;43.66
60212;BME280;46079;48.686;15.598;2023-04-10T00:51:22;100698.44;;;19.66;43.67
60212;BME280;46079;48.686;15.598;2023-04-10T00:53:50;100698.44;;;19.66;43.54
60212;BME280;46079;48.686;15.598;2023-04-10T00:56:17;100702.81;;;19.65;43.77
60212;BME280;46079;48.686;15.598;2023-04-10T00:58:43;100697.56;;;19.65;43.70
60212;BME280;46079;48.686;15.598;2023-04-10T01:01:09;100700.19;;;19.65;43.73
60212;BME280;46079;48.686;15.598;2023-04-10T01:03:35;100702.00;;;19.65;43.85
60212;BME280;46079;48.686;15.598;2023-04-10T01:06:29;100702.00;;;19.65;43.59
60212;BME280;46079;48.686;15.598;2023-04-10T01:16:51;100688.03;;;19.64;43.65
60212;BME280;46079;48.686;15.598;2023-04-10T01:19:28;100690.66;;;19.64;43.64
60212;BME280;46079;48.686;15.598;2023-04-10T01:21:59;100686.25;;;19.65;43.80
60212;BME280;46079;48.686;15.598;2023-04-10T01:29:57;100689.81;;;19.64;43.84
60212;BME280;46079;48.686;15.598;2023-04-10T01:32:26;100692.44;;;19.64;43.92
60212;BME280;46079;48.686;15.598;2023-04-10T01:34:55;100687.19;;;19.64;43.61
60212;BME280;46079;48.686;15.598;2023-04-10T01:37:29;100694.22;;;19.63;43.60
60212;BME280;46079;48.686;15.598;2023-04-10T01:40:01;100698.63;;;19.63;43.88
60212;BME280;46079;48.686;15.598;2023-04-10T01:42:30;100688.13;;;19.63;43.92
60212;BME280;46079;48.686;15.598;2023-04-10T01:44:57;100692.44;;;19.64;43.86
60212;BME280;46079;48.686;15.598;2023-04-10T01:47:24;100687.19;;;19.64;43.92
60212;BME280;46079;48.686;15.598;2023-04-10T01:49:52;100695.06;;;19.64;43.78
60212;BME280;46079;48.686;15.598;2023-04-10T01:52:18;100689.81;;;19.64;43.88
60212;BME280;46079;48.686;15.598;2023-04-10T01:54:46;100689.94;;;19.62;43.67
60212;BME280;46079;48.686;15.598;2023-04-10T01:57:15;100690.66;;;19.64;43.92
60212;BME280;46079;48.686;15.598;2023-04-10T01:59:41;100687.19;;;19.64;43.81
60212;BME280;46079;48.686;15.598;2023-04-10T02:02:07;100688.97;;;19.63;43.80
60212;BME280;46079;48.686;15.598;2023-04-10T02:04:35;100691.59;;;19.63;44.04
60212;BME280;46079;48.686;15.598;2023-04-10T02:07:16;100684.56;;;19.64;44.05
60212;BME280;46079;48.686;15.598;2023-04-10T02:09:57;100688.13;;;19.63;43.86
60212;BME280;46079;48.686;15.598;2023-04-10T02:12:51;100694.22;;;19.63;43.95
60212;BME280;46079;48.686;15.598;2023-04-10T02:15:23;100690.75;;;19.63;43.91
60212;BME280;46079;48.686;15.598;2023-04-10T02:17:51;100690.75;;;19.63;44.01
60212;BME280;46079;48.686;15.598;2023-04-10T02:20:17;100693.38;;;19.63;44.08
60212;BME280;46079;48.686;15.598;2023-04-10T02:22:43;100694.22;;;19.63;43.99
60212;BME280;46079;48.686;15.598;2023-04-10T02:25:09;100694.22;;;19.63;44.13
60212;BME280;46079;48.686;15.598;2023-04-10T02:27:36;100686.34;;;19.63;43.99
60212;BME280;46079;48.686;15.598;2023-04-10T02:30:02;100688.97;;;19.63;43.92
60212;BME280;46079;48.686;15.598;2023-04-10T02:32:29;100682.06;;;19.62;43.93
60212;BME280;46079;48.686;15.598;2023-04-10T02:34:55;100686.34;;;19.63;43.85
60212;BME280;46079;48.686;15.598;2023-04-10T02:37:21;100678.47;;;19.63;44.11
60212;BME280;46079;48.686;15.598;2023-04-10T02:39:47;100687.31;;;19.62;43.94
60212;BME280;46079;48.686;15.598;2023-04-10T02:42:13;100680.25;;;19.63;43.95
60212;BME280;46079;48.686;15.598;2023-04-10T02:44:38;100680.25;;;19.63;44.00
60212;BME280;46079;48.686;15.598;2023-04-10T02:47:04;100676.81;;;19.62;44.12
60212;BME280;46079;48.686;15.598;2023-04-10T02:49:30;100682.88;;;19.63;44.06
60212;BME280;46079;48.686;15.598;2023-04-10T02:51:56;100681.22;;;19.62;43.99
60212;BME280;46079;48.686;15.598;2023-04-10T02:54:21;100676.81;;;19.62;44.08
60212;BME280;46079;48.686;15.598;2023-04-10T02:56:47;100684.69;;;19.62;43.95
60212;BME280;46079;48.686;15.598;2023-04-10T02:59:12;100686.47;;;19.62;43.93
60212;BME280;46079;48.686;15.598;2023-04-10T03:01:38;100681.22;;;19.62;44.07
60212;BME280;46079;48.686;15.598;2023-04-10T03:04:04;100675.13;;;19.61;43.92
60212;BME280;46079;48.686;15.598;2023-04-10T03:06:29;100675.13;;;19.61;43.99
60212;BME280;46079;48.686;15.598;2023-04-10T03:08:55;100679.44;;;19.62;44.07
60212;BME280;46079;48.686;15.598;2023-04-10T03:11:20;100669.91;;;19.61;44.04
60212;BME280;46079;48.686;15.598;2023-04-10T03:13:46;100669.03;;;19.61;44.45
60212;BME280;46079;48.686;15.598;2023-04-10T03:16:13;100675.97;;;19.62;43.86
60212;BME280;46079;48.686;15.598;2023-04-10T03:18:39;100674.28;;;19.61;44.01
60212;BME280;46079;48.686;15.598;2023-04-10T03:21:04;100678.59;;;19.62;44.19
60212;BME280;46079;48.686;15.598;2023-04-10T03:23:30;100685.63;;;19.61;44.11
60212;BME280;46079;48.686;15.598;2023-04-10T03:25:56;100681.22;;;19.62;44.25
60212;BME280;46079;48.686;15.598;2023-04-10T03:28:22;100676.81;;;19.62;44.19
60212;BME280;46079;48.686;15.598;2023-04-10T03:30:49;100676.81;;;19.62;44.35
60212;BME280;46079;48.686;15.598;2023-04-10T03:33:15;100682.88;;;19.63;44.23
60212;BME280;46079;48.686;15.598;2023-04-10T03:35:40;100681.94;;;19.64;44.15
60212;BME280;46079;48.686;15.598;2023-04-10T03:38:09;100677.63;;;19.63;44.20
60212;BME280;46079;48.686;15.598;2023-04-10T03:40:34;100679.34;;;19.64;44.21
60212;BME280;46079;48.686;15.598;2023-04-10T03:43:00;100677.63;;;19.63;44.16
60212;BME280;46079;48.686;15.598;2023-04-10T03:45:25;100673.22;;;19.63;43.99
60212;BME280;46079;48.686;15.598;2023-04-10T03:47:51;100674.09;;;19.64;44.07
60212;BME280;46079;48.686;15.598;2023-04-10T03:50:17;100673.22;;;19.63;44.27
60212;BME280;46079;48.686;15.598;2023-04-10T03:52:42;100664.41;;;19.64;44.02
60212;BME280;46079;48.686;15.598;2023-04-10T03:55:08;100667.97;;;19.63;44.11
60212;BME280;46079;48.686;15.598;2023-04-10T03:57:34;100667.03;;;19.64;44.00
60212;BME280;46079;48.686;15.598;2023-04-10T03:59:59;100675.75;;;19.65;44.36
60212;BME280;46079;48.686;15.598;2023-04-10T04:02:25;100676.56;;;19.65;44.32
60212;BME280;46079;48.686;15.598;2023-04-10T04:04:50;100675.75;;;19.65;44.00
60212;BME280;46079;48.686;15.598;2023-04-10T04:07:15;100679.19;;;19.65;44.32
60212;BME280;46079;48.686;15.598;2023-04-10T04:09:41;100675.75;;;19.65;44.36
60212;BME280;46079;48.686;15.598;2023-04-10T04:12:06;100682.69;;;19.66;44.26
60212;BME280;46079;48.686;15.598;2023-04-10T04:14:32;100686.25;;;19.65;44.04
60212;BME280;46079;48.686;15.598;2023-04-10T04:16:57;100691.28;;;19.68;44.26
60212;BME280;46079;48.686;15.598;2023-04-10T04:19:23;100695.72;;;19.67;44.38
60212;BME280;46079;48.686;15.598;2023-04-10T04:21:48;100692.25;;;19.67;44.27
60212;BME280;46079;48.686;15.598;2023-04-10T04:24:14;100688.66;;;19.68;44.27
60212;BME280;46079;48.686;15.598;2023-04-10T04:26:39;100692.13;;;19.68;44.20
60212;BME280;46079;48.686;15.598;2023-04-10T04:29:05;100690.31;;;19.69;44.20
60212;BME280;46079;48.686;15.598;2023-04-10T04:31:30;100697.38;;;19.68;44.31
60212;BME280;46079;48.686;15.598;2023-04-10T04:33:57;100704.31;;;19.69;44.17
60212;BME280;46079;48.686;15.598;2023-04-10T04:36:23;100697.25;;;19.70;44.22
60212;BME280;46079;48.686;15.598;2023-04-10T04:38:48;100699.91;;;19.70;44.12
60212;BME280;46079;48.686;15.598;2023-04-10T04:41:13;100702.38;;;19.71;44.14
60212;BME280;46079;48.686;15.598;2023-04-10T04:43:40;100712.06;;;19.71;44.35
60212;BME280;46079;48.686;15.598;2023-04-10T04:46:05;100706.81;;;19.71;44.11
60212;BME280;46079;48.686;15.598;2023-04-10T04:48:31;100712.88;;;19.71;44.23
60212;BME280;46079;48.686;15.598;2023-04-10T04:50:56;100715.41;;;19.73;44.33
60212;BME280;46079;48.686;15.598;2023-04-10T04:53:21;100710.16;;;19.73;44.15
60212;BME280;46079;48.686;15.598;2023-04-10T04:55:47;100714.44;;;19.74;44.09
60212;BME280;46079;48.686;15.598;2023-04-10T04:58:12;100716.13;;;19.75;44.19
60212;BME280;46079;48.686;15.598;2023-04-10T05:00:37;100716.13;;;19.75;43.15
60212;BME280;46079;48.686;15.598;2023-04-10T05:03:03;100717.81;;;19.76;43.73
60212;BME280;46079;48.686;15.598;2023-04-10T05:05:30;100720.44;;;19.76;44.06
60212;BME280;46079;48.686;15.598;2023-04-10T05:07:55;100722.09;;;19.77;44.06
60212;BME280;46079;48.686;15.598;2023-04-10T05:10:21;100720.31;;;19.77;44.18
60212;BME280;46079;48.686;15.598;2023-04-10T05:12:47;100724.63;;;19.79;43.92
60212;BME280;46079;48.686;15.598;2023-04-10T05:15:12;100722.81;;;19.79;44.06
60212;BME280;46079;48.686;15.598;2023-04-10T05:17:37;100728.91;;;19.80;43.88
60212;BME280;46079;48.686;15.598;2023-04-10T05:20:03;100734.16;;;19.80;43.84
60212;BME280;46079;48.686;15.598;2023-04-10T05:22:29;100732.38;;;19.80;44.00
60212;BME280;46079;48.686;15.598;2023-04-10T05:24:55;100732.38;;;19.80;43.91
60212;BME280;46079;48.686;15.598;2023-04-10T05:27:20;100740.97;;;19.82;44.12
60212;BME280;46079;48.686;15.598;2023-04-10T05:29:46;100740.97;;;19.82;44.21
60212;BME280;46079;48.686;15.598;2023-04-10T05:32:13;100739.16;;;19.83;44.17
60212;BME280;46079;48.686;15.598;2023-04-10T05:34:38;100736.53;;;19.83;44.03
60212;BME280;46079;48.686;15.598;2023-04-10T05:37:04;100746.13;;;19.84;44.00
60212;BME280;46079;48.686;15.598;2023-04-10T05:39:29;100751.25;;;19.85;44.03
60212;BME280;46079;48.686;15.598;2023-04-10T05:41:55;100749.56;;;19.84;44.00
60212;BME280;46079;48.686;15.598;2023-04-10T05:44:22;100757.34;;;19.86;44.10
60212;BME280;46079;48.686;15.598;2023-04-10T05:46:48;100752.94;;;19.86;44.17
60212;BME280;46079;48.686;15.598;2023-04-10T05:49:13;100748.50;;;19.87;43.89
60212;BME280;46079;48.686;15.598;2023-04-10T05:51:39;100748.41;;;19.88;43.99
60212;BME280;46079;48.686;15.598;2023-04-10T05:54:04;100751.03;;;19.88;43.83
60212;BME280;46079;48.686;15.598;2023-04-10T05:56:30;100753.66;;;19.88;43.90
60212;BME280;46079;48.686;15.598;2023-04-10T05:58:55;100756.16;;;19.90;43.78
60212;BME280;46079;48.686;15.598;2023-04-10T06:01:20;100754.34;;;19.90;44.10
60212;BME280;46079;48.686;15.598;2023-04-10T06:03:46;100754.34;;;19.90;43.94
60212;BME280;46079;48.686;15.598;2023-04-10T06:06:11;100761.31;;;19.91;44.11
60212;BME280;46079;48.686;15.598;2023-04-10T06:08:37;100762.97;;;19.92;44.15
60212;BME280;46079;48.686;15.598;2023-04-10T06:11:03;100764.63;;;19.93;44.24
60212;BME280;46079;48.686;15.598;2023-04-10T06:13:28;100764.63;;;19.93;44.16
60212;BME280;46079;48.686;15.598;2023-04-10T06:15:54;100768.94;;;19.94;44.28
60212;BME280;46079;48.686;15.598;2023-04-10T06:18:19;100771.56;;;19.94;44.10
60212;BME280;46079;48.686;15.598;2023-04-10T06:20:44;100772.41;;;19.95;44.08
60212;BME280;46079;48.686;15.598;2023-04-10T06:23:10;100762.72;;;19.95;44.27
60212;BME280;46079;48.686;15.598;2023-04-10T06:25:37;100766.31;;;19.94;44.31
60212;BME280;46079;48.686;15.598;2023-04-10T06:28:03;100769.69;;;19.96;44.37
60212;BME280;46079;48.686;15.598;2023-04-10T06:30:28;100774.94;;;19.96;43.96
60212;BME280;46079;48.686;15.598;2023-04-10T06:32:55;100768.81;;;19.96;44.35
60212;BME280;46079;48.686;15.598;2023-04-10T06:35:20;100771.34;;;19.97;44.30
60212;BME280;46079;48.686;15.598;2023-04-10T06:37:46;100776.59;;;19.97;44.33
60212;BME280;46079;48.686;15.598;2023-04-10T06:40:12;100768.72;;;19.97;44.34
60212;BME280;46079;48.686;15.598;2023-04-10T06:42:38;100773.00;;;19.98;44.51
60212;BME280;46079;48.686;15.598;2023-04-10T06:45:05;100773.84;;;19.99;44.12
60212;BME280;46079;48.686;15.598;2023-04-10T06:47:31;100779.09;;;19.99;44.30
60212;BME280;46079;48.686;15.598;2023-04-10T06:49:56;100773.84;;;19.99;44.00
60212;BME280;46079;48.686;15.598;2023-04-10T06:52:22;100778.25;;;19.98;44.34
60212;BME280;46079;48.686;15.598;2023-04-10T06:54:47;100786.88;;;20.01;44.50
60212;BME280;46079;48.686;15.598;2023-04-10T06:57:13;100776.38;;;20.01;44.39
60212;BME280;46079;48.686;15.598;2023-04-10T06:59:39;100782.44;;;20.01;44.33
60212;BME280;46079;48.686;15.598;2023-04-10T07:02:04;100784.13;;;20.02;44.28
60212;BME280;46079;48.686;15.598;2023-04-10T07:04:31;100773.63;;;20.02;44.55
60212;BME280;46079;48.686;15.598;2023-04-10T07:06:56;100779.72;;;20.03;44.37
60212;BME280;46079;48.686;15.598;2023-04-10T07:09:24;100790.22;;;20.03;44.37
60212;BME280;46079;48.686;15.598;2023-04-10T07:11:50;100788.44;;;20.03;44.33
60212;BME280;46079;48.686;15.598;2023-04-10T07:14:16;100784.00;;;20.04;44.40
60212;BME280;46079;48.686;15.598;2023-04-10T07:16:42;100781.38;;;20.04;44.55
60212;BME280;46079;48.686;15.598;2023-04-10T07:19:07;100788.28;;;20.05;44.44
60212;BME280;46079;48.686;15.598;2023-04-10T07:21:33;100788.28;;;20.05;44.60
60212;BME280;46079;48.686;15.598;2023-04-10T07:23:58;100778.66;;;20.05;44.49
60212;BME280;46079;48.686;15.598;2023-04-10T07:26:23;100792.63;;;20.06;44.60
60212;BME280;46079;48.686;15.598;2023-04-10T07:28:50;100788.28;;;20.05;44.42
60212;BME280;46079;48.686;15.598;2023-04-10T07:31:15;100800.50;;;20.06;44.38
60212;BME280;46079;48.686;15.598;2023-04-10T07:33:43;100790.00;;;20.06;43.46
60212;BME280;46079;48.686;15.598;2023-04-10T07:36:09;100791.66;;;20.07;42.73
60212;BME280;46079;48.686;15.598;2023-04-10T07:38:34;100784.59;;;20.07;42.93
60212;BME280;46079;48.686;15.598;2023-04-10T07:41:00;100779.25;;;20.09;42.09
60212;BME280;46079;48.686;15.598;2023-04-10T07:43:26;100779.97;;;20.11;42.17
60212;BME280;46079;48.686;15.598;2023-04-10T07:45:51;100787.88;;;20.11;42.19
60212;BME280;46079;48.686;15.598;2023-04-10T07:48:17;100783.44;;;20.11;42.35
60212;BME280;46079;48.686;15.598;2023-04-10T07:50:42;100792.06;;;20.13;42.49
60212;BME280;46079;48.686;15.598;2023-04-10T07:53:08;100783.31;;;20.13;42.16
60212;BME280;46079;48.686;15.598;2023-04-10T07:55:44;100787.41;;;20.17;42.82
60212;BME280;46079;48.686;15.598;2023-04-10T07:58:09;100792.19;;;20.23;42.37
60212;BME280;46079;48.686;15.598;2023-04-10T08:00:35;100794.56;;;20.26;41.78
60212;BME280;46079;48.686;15.598;2023-04-10T08:03:03;100800.56;;;20.28;41.14
60212;BME280;46079;48.686;15.598;2023-04-10T08:05:29;100796.28;;;20.27;40.89
60212;BME280;46079;48.686;15.598;2023-04-10T08:07:55;100803.31;;;20.27;40.85
60212;BME280;46079;48.686;15.598;2023-04-10T08:10:20;100800.69;;;20.27;40.45
60212;BME280;46079;48.686;15.598;2023-04-10T08:12:46;100795.31;;;20.28;40.37
60212;BME280;46079;48.686;15.598;2023-04-10T08:15:11;100796.97;;;20.29;40.39
60212;BME280;46079;48.686;15.598;2023-04-10T08:17:37;100790.06;;;20.28;40.12
60212;BME280;46079;48.686;15.598;2023-04-10T08:20:03;100795.31;;;20.28;40.04
60212;BME280;46079;48.686;15.598;2023-04-10T08:22:29;100794.34;;;20.29;39.94
60212;BME280;46079;48.686;15.598;2023-04-10T08:24:54;100793.66;;;20.27;40.10
60212;BME280;46079;48.686;15.598;2023-04-10T08:27:20;100796.13;;;20.29;39.72
60212;BME280;46079;48.686;15.598;2023-04-10T08:29:45;100790.88;;;20.29;39.73
60212;BME280;46079;48.686;15.598;2023-04-10T08:32:11;100802.22;;;20.29;39.78
60212;BME280;46079;48.686;15.598;2023-04-10T08:34:36;100801.38;;;20.29;39.74
60212;BME280;46079;48.686;15.598;2023-04-10T08:37:05;100802.22;;;20.29;39.61
60212;BME280;46079;48.686;15.598;2023-04-10T08:39:35;100793.50;;;20.29;39.62
60212;BME280;46079;48.686;15.598;2023-04-10T08:42:01;100780.38;;;20.29;39.80
60212;BME280;46079;48.686;15.598;2023-04-10T08:44:27;100778.72;;;20.28;39.69
60212;BME280;46079;48.686;15.598;2023-04-10T08:46:56;100771.66;;;20.28;39.69
60212;BME280;46079;48.686;15.598;2023-04-10T08:50:09;100769.03;;;20.28;39.71
60212;BME280;46079;48.686;15.598;2023-04-10T08:52:14;100767.38;;;20.27;39.41
60212;BME280;46079;48.686;15.598;2023-04-10T08:54:47;100765.69;;;20.26;39.49
60212;BME280;46079;48.686;15.598;2023-04-10T08:57:16;100762.22;;;20.26;39.83
60212;BME280;46079;48.686;15.598;2023-04-10T08:59:45;100758.75;;;20.25;39.89
60212;BME280;46079;48.686;15.598;2023-04-10T09:02:10;100764.00;;;20.25;40.35
60212;BME280;46079;48.686;15.598;2023-04-10T09:04:35;100752.53;;;20.26;40.37
60212;BME280;46079;48.686;15.598;2023-04-10T09:07:01;100760.41;;;20.26;40.62
60212;BME280;46079;48.686;15.598;2023-04-10T09:09:26;100756.84;;;20.27;40.63
60212;BME280;46079;48.686;15.598;2023-04-10T09:12:00;100748.00;;;20.28;40.61
60212;BME280;46079;48.686;15.598;2023-04-10T09:14:34;100750.63;;;20.28;40.74
60212;BME280;46079;48.686;15.598;2023-04-10T09:19:42;100751.38;;;20.30;40.86
60212;BME280;46079;48.686;15.598;2023-04-10T09:22:08;100746.13;;;20.30;40.86
60212;BME280;46079;48.686;15.598;2023-04-10T09:24:38;100749.56;;;20.31;40.96
60212;BME280;46079;48.686;15.598;2023-04-10T09:27:04;100750.31;;;20.33;41.06
60212;BME280;46079;48.686;15.598;2023-04-10T09:29:44;100756.38;;;20.33;41.10
60212;BME280;46079;48.686;15.598;2023-04-10T09:32:13;100754.72;;;20.32;40.93
60212;BME280;46079;48.686;15.598;2023-04-10T09:34:58;100745.97;;;20.32;40.92
60212;BME280;46079;48.686;15.598;2023-04-10T09:37:33;100733.72;;;20.32;41.07
60212;BME280;46079;48.686;15.598;2023-04-10T09:39:59;100743.50;;;20.30;41.20
60212;BME280;46079;48.686;15.598;2023-04-10T09:42:32;100739.78;;;20.33;41.16
60212;BME280;46079;48.686;15.598;2023-04-10T09:44:59;100733.72;;;20.32;41.28
60212;BME280;46079;48.686;15.598;2023-04-10T09:47:26;100727.59;;;20.32;41.34
60212;BME280;46079;48.686;15.598;2023-04-10T09:49:52;100728.44;;;20.32;41.35
60212;BME280;46079;48.686;15.598;2023-04-10T09:52:26;100712.69;;;20.32;41.33
60212;BME280;46079;48.686;15.598;2023-04-10T09:54:57;100712.69;;;20.32;41.40
60212;BME280;46079;48.686;15.598;2023-04-10T09:57:24;100707.44;;;20.32;41.35
60212;BME280;46079;48.686;15.598;2023-04-10T09:59:55;100712.69;;;20.32;41.42
60212;BME280;46079;48.686;15.598;2023-04-10T10:02:23;100710.06;;;20.32;41.53
60212;BME280;46079;48.686;15.598;2023-04-10T10:04:49;100703.94;;;20.32;41.41
60212;BME280;46079;48.686;15.598;2023-04-10T10:07:16;100708.25;;;20.33;41.62
60212;BME280;46079;48.686;15.598;2023-04-10T10:09:43;100696.06;;;20.32;41.51
60212;BME280;46079;48.686;15.598;2023-04-10T10:12:11;100700.47;;;20.31;41.58
60212;BME280;46079;48.686;15.598;2023-04-10T10:14:47;100703.00;;;20.33;41.33
60212;BME280;46079;48.686;15.598;2023-04-10T10:17:17;100693.44;;;20.32;41.46
60212;BME280;46079;48.686;15.598;2023-04-10T10:19:55;100695.97;;;20.33;41.53
60212;BME280;46079;48.686;15.598;2023-04-10T10:22:24;100682.91;;;20.32;41.46
60212;BME280;46079;48.686;15.598;2023-04-10T10:24:50;100687.25;;;20.33;41.39
60212;BME280;46079;48.686;15.598;2023-04-10T10:27:21;100682.00;;;20.33;41.55
60212;BME280;46079;48.686;15.598;2023-04-10T10:29:48;100664.53;;;20.32;41.41
60212;BME280;46079;48.686;15.598;2023-04-10T10:32:16;100663.69;;;20.31;41.36
60212;BME280;46079;48.686;15.598;2023-04-10T10:34:43;100665.41;;;20.32;41.42
60212;BME280;46079;48.686;15.598;2023-04-10T10:37:09;100668.03;;;20.32;41.39
60212;BME280;46079;48.686;15.598;2023-04-10T10:40:03;100659.28;;;20.32;41.55
60212;BME280;46079;48.686;15.598;2023-04-10T10:42:41;100647.09;;;20.31;41.50
60212;BME280;46079;48.686;15.598;2023-04-10T10:45:16;100651.53;;;20.30;41.46
60212;BME280;46079;48.686;15.598;2023-04-10T10:47:51;100641.75;;;20.32;41.47
60212;BME280;46079;48.686;15.598;2023-04-10T10:50:18;100639.13;;;20.32;41.44
60212;BME280;46079;48.686;15.598;2023-04-10T10:57:52;100647.94;;;20.31;41.44
60212;BME280;46079;48.686;15.598;2023-04-10T11:00:21;100641.84;;;20.31;41.44
60212;BME280;46079;48.686;15.598;2023-04-10T11:06:01;100623.47;;;20.31;41.58
60212;BME280;46079;48.686;15.598;2023-04-10T11:11:08;100617.38;;;20.30;41.39
60212;BME280;46079;48.686;15.598;2023-04-10T11:13:36;100617.38;;;20.30;41.42
60212;BME280;46079;48.686;15.598;2023-04-10T11:16:03;100612.13;;;20.30;41.41
60212;BME280;46079;48.686;15.598;2023-04-10T11:21:14;100612.13;;;20.30;41.32
60212;BME280;46079;48.686;15.598;2023-04-10T11:28:58;100590.28;;;20.30;41.36
60212;BME280;46079;48.686;15.598;2023-04-10T11:31:24;100596.38;;;20.30;41.56
60212;BME280;46079;48.686;15.598;2023-04-10T11:34:02;100586.78;;;20.29;41.38
60212;BME280;46079;48.686;15.598;2023-04-10T11:36:29;100587.66;;;20.30;41.28
60212;BME280;46079;48.686;15.598;2023-04-10T11:39:01;100581.53;;;20.29;41.35
60212;BME280;46079;48.686;15.598;2023-04-10T11:41:30;100584.16;;;20.29;41.38
60212;BME280;46079;48.686;15.598;2023-04-10T11:43:58;100574.63;;;20.28;41.53
60212;BME280;46079;48.686;15.598;2023-04-10T11:46:23;100568.41;;;20.29;41.31
60212;BME280;46079;48.686;15.598;2023-04-10T11:49:00;100577.97;;;20.30;41.45
60212;BME280;46079;48.686;15.598;2023-04-10T11:51:26;100562.22;;;20.30;41.45
60212;BME280;46079;48.686;15.598;2023-04-10T11:54:05;100564.94;;;20.29;41.35
60212;BME280;46079;48.686;15.598;2023-04-10T11:56:31;100567.56;;;20.29;41.55
60212;BME280;46079;48.686;15.598;2023-04-10T11:58:57;100558.84;;;20.28;41.50
60212;BME280;46079;48.686;15.598;2023-04-10T12:01:23;100560.50;;;20.29;41.57
60212;BME280;46079;48.686;15.598;2023-04-10T12:03:49;100555.25;;;20.29;41.38
60212;BME280;46079;48.686;15.598;2023-04-10T12:06:15;100554.44;;;20.29;41.43
60212;BME280;46079;48.686;15.598;2023-04-10T12:08:42;100545.72;;;20.28;41.31
60212;BME280;46079;48.686;15.598;2023-04-10T12:11:10;100549.19;;;20.29;41.44
60212;BME280;46079;48.686;15.598;2023-04-10T12:13:36;100547.53;;;20.28;41.33
60212;BME280;46079;48.686;15.598;2023-04-10T12:16:05;100548.34;;;20.28;41.31
60212;BME280;46079;48.686;15.598;2023-04-10T12:18:31;100537.00;;;20.28;41.35
60212;BME280;46079;48.686;15.598;2023-04-10T12:20:57;100539.63;;;20.28;41.45
60212;BME280;46079;48.686;15.598;2023-04-10T12:23:24;100541.31;;;20.29;41.50
60212;BME280;46079;48.686;15.598;2023-04-10T12:25:50;100536.03;;;20.29;41.35
60212;BME280;46079;48.686;15.598;2023-04-10T12:28:18;100532.59;;;20.28;41.23
60212;BME280;46079;48.686;15.598;2023-04-10T12:30:51;100522.09;;;20.28;41.57
60212;BME280;46079;48.686;15.598;2023-04-10T12:33:21;100524.72;;;20.28;41.44
60212;BME280;46079;48.686;15.598;2023-04-10T12:35:46;100513.38;;;20.28;41.32
60212;BME280;46079;48.686;15.598;2023-04-10T12:38:12;100511.56;;;20.28;41.45
60212;BME280;46079;48.686;15.598;2023-04-10T12:40:37;100511.56;;;20.28;41.29
60212;BME280;46079;48.686;15.598;2023-04-10T12:43:04;100508.94;;;20.28;41.46
60212;BME280;46079;48.686;15.598;2023-04-10T12:45:43;100504.53;;;20.29;41.37
60212;BME280;46079;48.686;15.598;2023-04-10T12:48:09;100497.47;;;20.29;41.39
60212;BME280;46079;48.686;15.598;2023-04-10T12:50:45;100488.91;;;20.27;41.37
60212;BME280;46079;48.686;15.598;2023-04-10T12:53:11;100485.31;;;20.28;41.36
60212;BME280;46079;48.686;15.598;2023-04-10T12:55:38;100482.69;;;20.28;41.26
60212;BME280;46079;48.686;15.598;2023-04-10T12:58:17;100488.91;;;20.27;41.29
60212;BME280;46079;48.686;15.598;2023-04-10T13:00:47;100485.31;;;20.28;41.44
60212;BME280;46079;48.686;15.598;2023-04-10T13:03:12;100487.94;;;20.28;41.44
60212;BME280;46079;48.686;15.598;2023-04-10T13:05:38;100483.66;;;20.27;41.31
60212;BME280;46079;48.686;15.598;2023-04-10T13:08:04;100484.47;;;20.28;41.36
60212;BME280;46079;48.686;15.598;2023-04-10T13:10:29;100475.75;;;20.27;41.43
60212;BME280;46079;48.686;15.598;2023-04-10T13:12:55;100473.13;;;20.27;41.37
60212;BME280;46079;48.686;15.598;2023-04-10T13:15:20;100471.34;;;20.28;41.51